sensor_id;sensor_type;location;lat;lon;timestamp;temperature;humidity
28297;DHT22;62078;49.366;8.172;2023-08-17T02:57:19;24.60;71.00
28297;DHT22;62078;49.366;8.172;2023-08-17T02:59:45;24.70;73.20
28297;DHT22;62078;49.366;8.172;2023-08-17T03:02:11;24.70;73.20
28297;DHT22;62078;49.366;8.172;2023-08-17T03:04:36;24.70;73.10
28297;DHT22;62078;49.366;8.172;2023-08-17T03:07:02;24.70;73.00
28297;DHT22;62078;49.366;8.172;2023-08-17T03:09:28;24.70;73.10
28297;DHT22;62078;49.366;8.172;2023-08-17T03:11:54;24.70;73.10
28297;DHT22;62078;49.366;8.172;2023-08-17T03:14:19;24.70;73.80
28297;DHT22;62078;49.366;8.172;2023-08-17T03:16:45;24.70;73.10
28297;DHT22;62078;49.366;8.172;2023-08-17T03:19:11;24.70;72.80
28297;DHT22;62078;49.366;8.172;2023-08-17T03:21:37;24.60;70.40
28297;DHT22;62078;49.366;8.172;2023-08-17T03:24:03;24.60;69.30
28297;DHT22;62078;49.366;8.172;2023-08-17T03:26:29;24.60;68.90
28297;DHT22;62078;49.366;8.172;2023-08-17T03:28:55;24.50;68.50
28297;DHT22;62078;49.366;8.172;2023-08-17T03:31:21;24.40;68.00
28297;DHT22;62078;49.366;8.172;2023-08-17T03:33:47;24.40;67.80
28297;DHT22;62078;49.366;8.172;2023-08-17T03:36:13;24.40;67.70
28297;DHT22;62078;49.366;8.172;2023-08-17T03:38:39;24.40;67.60
28297;DHT22;62078;49.366;8.172;2023-08-17T03:41:05;24.40;67.50
28297;DHT22;62078;49.366;8.172;2023-08-17T03:43:31;24.40;67.50
28297;DHT22;62078;49.366;8.172;2023-08-17T03:45:57;24.30;67.30
28297;DHT22;62078;49.366;8.172;2023-08-17T03:48:23;24.30;67.30
28297;DHT22;62078;49.366;8.172;2023-08-17T03:50:53;24.30;67.20
28297;DHT22;62078;49.366;8.172;2023-08-17T03:53:19;24.30;67.20
28297;DHT22;62078;49.366;8.172;2023-08-17T03:55:49;24.30;67.10
28297;DHT22;62078;49.366;8.172;2023-08-17T03:58:15;24.20;67.00
28297;DHT22;62078;49.366;8.172;2023-08-17T04:00:41;24.30;67.10
28297;DHT22;62078;49.366;8.172;2023-08-17T04:03:08;24.30;67.30
28297;DHT22;62078;49.366;8.172;2023-08-17T04:05:33;24.30;67.40
28297;DHT22;62078;49.366;8.172;2023-08-17T04:08:00;24.40;67.50
28297;DHT22;62078;49.366;8.172;2023-08-17T04:10:28;24.40;67.50
28297;DHT22;62078;49.366;8.172;2023-08-17T04:12:56;24.40;67.70
28297;DHT22;62078;49.366;8.172;2023-08-17T04:15:21;24.10;67.70
28297;DHT22;62078;49.366;8.172;2023-08-17T04:17:47;23.80;68.60
28297;DHT22;62078;49.366;8.172;2023-08-17T04:20:13;23.60;69.60
28297;DHT22;62078;49.366;8.172;2023-08-17T04:22:39;23.40;70.20
28297;DHT22;62078;49.366;8.172;2023-08-17T04:25:05;23.30;70.70
28297;DHT22;62078;49.366;8.172;2023-08-17T04:27:30;23.10;71.40
28297;DHT22;62078;49.366;8.172;2023-08-17T04:29:57;23.10;72.00
28297;DHT22;62078;49.366;8.172;2023-08-17T04:32:23;23.00;72.10
28297;DHT22;62078;49.366;8.172;2023-08-17T04:34:48;23.00;72.20
28297;DHT22;62078;49.366;8.172;2023-08-17T04:37:14;23.00;72.40
28297;DHT22;62078;49.366;8.172;2023-08-17T04:39:40;22.90;72.30
28297;DHT22;62078;49.366;8.172;2023-08-17T04:42:09;22.90;72.60
28297;DHT22;62078;49.366;8.172;2023-08-17T04:44:35;22.80;72.80
28297;DHT22;62078;49.366;8.172;2023-08-17T04:47:01;22.80;72.80
28297;DHT22;62078;49.366;8.172;2023-08-17T04:49:26;22.60;72.80
28297;DHT22;62078;49.366;8.172;2023-08-17T04:51:53;22.30;73.70
28297;DHT22;62078;49.366;8.172;2023-08-17T04:54:19;22.10;74.40
28297;DHT22;62078;49.366;8.172;2023-08-17T04:56:44;22.00;75.30
28297;DHT22;62078;49.366;8.172;2023-08-17T04:59:10;21.90;76.00
28297;DHT22;62078;49.366;8.172;2023-08-17T05:01:36;21.80;76.80
28297;DHT22;62078;49.366;8.172;2023-08-17T05:04:03;21.80;77.40
28297;DHT22;62078;49.366;8.172;2023-08-17T05:06:29;21.70;77.60
28297;DHT22;62078;49.366;8.172;2023-08-17T05:08:55;21.70;78.30
28297;DHT22;62078;49.366;8.172;2023-08-17T05:11:21;21.70;78.40
28297;DHT22;62078;49.366;8.172;2023-08-17T05:13:47;21.80;78.50
28297;DHT22;62078;49.366;8.172;2023-08-17T05:16:13;21.70;78.50
28297;DHT22;62078;49.366;8.172;2023-08-17T05:18:39;21.80;78.60
28297;DHT22;62078;49.366;8.172;2023-08-17T05:21:04;21.80;78.60
28297;DHT22;62078;49.366;8.172;2023-08-17T05:23:30;21.80;78.90
28297;DHT22;62078;49.366;8.172;2023-08-17T05:25:56;21.70;79.80
28297;DHT22;62078;49.366;8.172;2023-08-17T05:28:22;21.60;79.40
28297;DHT22;62078;49.366;8.172;2023-08-17T05:30:48;21.60;80.00
28297;DHT22;62078;49.366;8.172;2023-08-17T05:33:15;21.70;79.80
28297;DHT22;62078;49.366;8.172;2023-08-17T05:35:40;21.80;79.50
28297;DHT22;62078;49.366;8.172;2023-08-17T05:38:08;21.80;79.80
28297;DHT22;62078;49.366;8.172;2023-08-17T05:40:34;21.80;79.70
28297;DHT22;62078;49.366;8.172;2023-08-17T05:43:00;21.80;79.80
28297;DHT22;62078;49.366;8.172;2023-08-17T05:45:26;21.90;79.60
28297;DHT22;62078;49.366;8.172;2023-08-17T05:47:52;22.00;79.70
28297;DHT22;62078;49.366;8.172;2023-08-17T05:50:18;22.00;80.00
28297;DHT22;62078;49.366;8.172;2023-08-17T05:52:44;22.00;80.10
28297;DHT22;62078;49.366;8.172;2023-08-17T05:55:09;22.00;80.20
28297;DHT22;62078;49.366;8.172;2023-08-17T05:57:35;22.10;80.20
28297;DHT22;62078;49.366;8.172;2023-08-17T06:00:01;22.10;80.40
28297;DHT22;62078;49.366;8.172;2023-08-17T06:02:30;22.10;80.40
28297;DHT22;62078;49.366;8.172;2023-08-17T06:04:55;22.00;80.90
28297;DHT22;62078;49.366;8.172;2023-08-17T06:07:21;22.00;80.80
28297;DHT22;62078;49.366;8.172;2023-08-17T06:09:47;22.10;80.70
28297;DHT22;62078;49.366;8.172;2023-08-17T06:12:12;22.20;80.70
28297;DHT22;62078;49.366;8.172;2023-08-17T06:14:38;22.20;80.80
28297;DHT22;62078;49.366;8.172;2023-08-17T06:17:04;22.20;80.30
28297;DHT22;62078;49.366;8.172;2023-08-17T06:19:30;22.10;80.80
28297;DHT22;62078;49.366;8.172;2023-08-17T06:21:55;22.10;80.90
28297;DHT22;62078;49.366;8.172;2023-08-17T06:24:21;22.00;81.30
28297;DHT22;62078;49.366;8.172;2023-08-17T06:26:47;21.90;82.20
28297;DHT22;62078;49.366;8.172;2023-08-17T06:29:12;21.80;82.60
28297;DHT22;62078;49.366;8.172;2023-08-17T06:31:38;21.90;82.80
28297;DHT22;62078;49.366;8.172;2023-08-17T06:34:04;21.90;82.80
28297;DHT22;62078;49.366;8.172;2023-08-17T06:36:32;22.00;82.70
28297;DHT22;62078;49.366;8.172;2023-08-17T06:38:59;22.00;82.70
28297;DHT22;62078;49.366;8.172;2023-08-17T06:41:25;22.10;82.60
28297;DHT22;62078;49.366;8.172;2023-08-17T06:43:51;22.30;82.10
28297;DHT22;62078;49.366;8.172;2023-08-17T06:46:17;22.60;80.60
28297;DHT22;62078;49.366;8.172;2023-08-17T06:48:43;22.90;79.20
28297;DHT22;62078;49.366;8.172;2023-08-17T06:51:09;23.00;78.10
28297;DHT22;62078;49.366;8.172;2023-08-17T06:53:35;23.20;77.40
28297;DHT22;62078;49.366;8.172;2023-08-17T06:56:00;23.30;76.70
28297;DHT22;62078;49.366;8.172;2023-08-17T06:58:26;23.30;76.20
28297;DHT22;62078;49.366;8.172;2023-08-17T07:00:52;23.40;75.70
28297;DHT22;62078;49.366;8.172;2023-08-17T07:03:18;23.40;75.40
28297;DHT22;62078;49.366;8.172;2023-08-17T07:05:43;23.50;75.10
28297;DHT22;62078;49.366;8.172;2023-08-17T07:08:09;23.50;74.90
28297;DHT22;62078;49.366;8.172;2023-08-17T07:10:35;23.60;74.60
28297;DHT22;62078;49.366;8.172;2023-08-17T07:13:01;23.60;74.40
28297;DHT22;62078;49.366;8.172;2023-08-17T07:15:29;23.60;74.20
28297;DHT22;62078;49.366;8.172;2023-08-17T07:17:55;23.60;74.10
28297;DHT22;62078;49.366;8.172;2023-08-17T07:20:21;23.60;74.00
28297;DHT22;62078;49.366;8.172;2023-08-17T07:22:47;23.60;73.90
28297;DHT22;62078;49.366;8.172;2023-08-17T07:25:12;23.70;73.80
28297;DHT22;62078;49.366;8.172;2023-08-17T07:27:38;23.70;73.80
28297;DHT22;62078;49.366;8.172;2023-08-17T07:30:05;23.70;73.70
28297;DHT22;62078;49.366;8.172;2023-08-17T07:32:30;23.70;73.60
28297;DHT22;62078;49.366;8.172;2023-08-17T07:34:56;23.70;73.50
28297;DHT22;62078;49.366;8.172;2023-08-17T07:37:22;23.80;73.50
28297;DHT22;62078;49.366;8.172;2023-08-17T07:39:48;23.80;73.40
28297;DHT22;62078;49.366;8.172;2023-08-17T07:42:13;23.80;73.40
28297;DHT22;62078;49.366;8.172;2023-08-17T07:44:39;23.80;73.20
28297;DHT22;62078;49.366;8.172;2023-08-17T07:47:05;23.90;73.20
28297;DHT22;62078;49.366;8.172;2023-08-17T07:49:31;23.80;73.10
28297;DHT22;62078;49.366;8.172;2023-08-17T07:51:57;23.90;73.10
28297;DHT22;62078;49.366;8.172;2023-08-17T07:54:22;23.90;73.00
28297;DHT22;62078;49.366;8.172;2023-08-17T07:56:48;23.90;73.00
28297;DHT22;62078;49.366;8.172;2023-08-17T07:59:14;24.00;73.10
28297;DHT22;62078;49.366;8.172;2023-08-17T08:01:39;23.90;72.80
28297;DHT22;62078;49.366;8.172;2023-08-17T08:04:05;24.00;72.80
28297;DHT22;62078;49.366;8.172;2023-08-17T08:06:32;24.00;72.90
28297;DHT22;62078;49.366;8.172;2023-08-17T08:08:58;24.00;72.80
28297;DHT22;62078;49.366;8.172;2023-08-17T08:11:23;24.00;72.80
28297;DHT22;62078;49.366;8.172;2023-08-17T08:13:49;24.10;72.80
28297;DHT22;62078;49.366;8.172;2023-08-17T08:16:15;24.10;72.80
28297;DHT22;62078;49.366;8.172;2023-08-17T08:18:40;24.10;72.80
28297;DHT22;62078;49.366;8.172;2023-08-17T08:21:06;24.10;72.90
28297;DHT22;62078;49.366;8.172;2023-08-17T08:23:31;24.10;72.90
28297;DHT22;62078;49.366;8.172;2023-08-17T08:25:57;24.10;72.80
28297;DHT22;62078;49.366;8.172;2023-08-17T08:28:24;24.10;72.80
28297;DHT22;62078;49.366;8.172;2023-08-17T08:30:50;24.20;72.90
28297;DHT22;62078;49.366;8.172;2023-08-17T08:33:15;24.10;72.80
28297;DHT22;62078;49.366;8.172;2023-08-17T08:35:41;24.10;72.80
28297;DHT22;62078;49.366;8.172;2023-08-17T08:38:07;24.20;72.90
28297;DHT22;62078;49.366;8.172;2023-08-17T08:40:32;24.20;73.00
28297;DHT22;62078;49.366;8.172;2023-08-17T08:43:00;24.20;72.90
28297;DHT22;62078;49.366;8.172;2023-08-17T08:45:28;24.20;72.90
28297;DHT22;62078;49.366;8.172;2023-08-17T08:47:56;24.20;72.90
28297;DHT22;62078;49.366;8.172;2023-08-17T08:50:25;24.20;72.80
28297;DHT22;62078;49.366;8.172;2023-08-17T08:53:02;24.20;73.40
28297;DHT22;62078;49.366;8.172;2023-08-17T08:55:37;24.20;72.60
28297;DHT22;62078;49.366;8.172;2023-08-17T08:58:04;24.20;72.60
28297;DHT22;62078;49.366;8.172;2023-08-17T09:00:31;24.30;72.70
28297;DHT22;62078;49.366;8.172;2023-08-17T09:02:57;24.30;72.60
28297;DHT22;62078;49.366;8.172;2023-08-17T09:05:24;24.30;72.60
28297;DHT22;62078;49.366;8.172;2023-08-17T09:07:51;24.30;72.50
28297;DHT22;62078;49.366;8.172;2023-08-17T09:10:17;24.30;72.40
28297;DHT22;62078;49.366;8.172;2023-08-17T09:12:46;24.30;72.50
28297;DHT22;62078;49.366;8.172;2023-08-17T09:15:15;24.30;72.60
28297;DHT22;62078;49.366;8.172;2023-08-17T09:17:40;24.30;72.50
28297;DHT22;62078;49.366;8.172;2023-08-17T09:20:07;24.30;72.40
28297;DHT22;62078;49.366;8.172;2023-08-17T09:22:41;24.30;72.40
28297;DHT22;62078;49.366;8.172;2023-08-17T09:25:09;24.40;72.40
28297;DHT22;62078;49.366;8.172;2023-08-17T09:27:38;24.40;72.40
28297;DHT22;62078;49.366;8.172;2023-08-17T09:30:06;24.40;72.40
28297;DHT22;62078;49.366;8.172;2023-08-17T09:32:33;24.40;72.40
28297;DHT22;62078;49.366;8.172;2023-08-17T09:35:05;24.40;72.40
28297;DHT22;62078;49.366;8.172;2023-08-17T09:37:34;24.40;72.40
28297;DHT22;62078;49.366;8.172;2023-08-17T09:40:00;24.40;72.40
28297;DHT22;62078;49.366;8.172;2023-08-17T09:42:26;24.40;72.60
28297;DHT22;62078;49.366;8.172;2023-08-17T09:44:53;24.40;72.40
28297;DHT22;62078;49.366;8.172;2023-08-17T09:47:22;24.40;72.40
28297;DHT22;62078;49.366;8.172;2023-08-17T09:49:52;24.40;72.40
28297;DHT22;62078;49.366;8.172;2023-08-17T09:52:26;24.40;72.50
28297;DHT22;62078;49.366;8.172;2023-08-17T09:54:52;24.40;72.50
28297;DHT22;62078;49.366;8.172;2023-08-17T09:57:20;24.40;72.50
28297;DHT22;62078;49.366;8.172;2023-08-17T09:59:45;24.40;72.40
28297;DHT22;62078;49.366;8.172;2023-08-17T10:02:19;24.40;72.50
28297;DHT22;62078;49.366;8.172;2023-08-17T10:04:50;24.40;72.60
28297;DHT22;62078;49.366;8.172;2023-08-17T10:07:19;24.50;72.60
28297;DHT22;62078;49.366;8.172;2023-08-17T10:09:49;24.40;72.60
28297;DHT22;62078;49.366;8.172;2023-08-17T10:12:20;24.50;72.60
28297;DHT22;62078;49.366;8.172;2023-08-17T10:14:57;24.40;72.60
28297;DHT22;62078;49.366;8.172;2023-08-17T10:17:33;24.40;72.60
28297;DHT22;62078;49.366;8.172;2023-08-17T10:20:00;24.40;72.60
28297;DHT22;62078;49.366;8.172;2023-08-17T10:24:57;24.50;72.70
28297;DHT22;62078;49.366;8.172;2023-08-17T10:27:24;24.50;72.70
28297;DHT22;62078;49.366;8.172;2023-08-17T10:29:51;24.50;72.60
28297;DHT22;62078;49.366;8.172;2023-08-17T10:32:17;24.50;72.70
28297;DHT22;62078;49.366;8.172;2023-08-17T10:34:44;24.50;72.80
28297;DHT22;62078;49.366;8.172;2023-08-17T10:37:11;24.50;72.90
28297;DHT22;62078;49.366;8.172;2023-08-17T10:39:45;24.50;72.80
28297;DHT22;62078;49.366;8.172;2023-08-17T10:42:11;24.50;72.80
28297;DHT22;62078;49.366;8.172;2023-08-17T10:44:42;24.50;73.00
28297;DHT22;62078;49.366;8.172;2023-08-17T10:47:24;24.50;73.10
28297;DHT22;62078;49.366;8.172;2023-08-17T10:50:04;24.50;73.00
28297;DHT22;62078;49.366;8.172;2023-08-17T10:52:31;24.50;73.20
28297;DHT22;62078;49.366;8.172;2023-08-17T10:55:00;24.50;73.20
28297;DHT22;62078;49.366;8.172;2023-08-17T10:57:30;24.60;73.30
28297;DHT22;62078;49.366;8.172;2023-08-17T11:02:43;24.60;73.40
28297;DHT22;62078;49.366;8.172;2023-08-17T11:05:10;24.60;73.40
28297;DHT22;62078;49.366;8.172;2023-08-17T11:07:42;24.60;73.40
28297;DHT22;62078;49.366;8.172;2023-08-17T11:12:45;24.60;73.40
28297;DHT22;62078;49.366;8.172;2023-08-17T11:15:11;24.60;73.60
28297;DHT22;62078;49.366;8.172;2023-08-17T11:17:37;24.60;73.70
28297;DHT22;62078;49.366;8.172;2023-08-17T11:20:06;24.60;74.00
28297;DHT22;62078;49.366;8.172;2023-08-17T11:22:34;24.60;74.00
28297;DHT22;62078;49.366;8.172;2023-08-17T11:25:00;24.70;74.10
28297;DHT22;62078;49.366;8.172;2023-08-17T11:27:26;24.60;74.00
28297;DHT22;62078;49.366;8.172;2023-08-17T11:29:55;24.60;73.80
28297;DHT22;62078;49.366;8.172;2023-08-17T11:32:21;24.60;74.00
28297;DHT22;62078;49.366;8.172;2023-08-17T11:34:47;24.60;74.20
28297;DHT22;62078;49.366;8.172;2023-08-17T11:37:12;24.60;74.20
28297;DHT22;62078;49.366;8.172;2023-08-17T11:39:38;24.60;74.20
28297;DHT22;62078;49.366;8.172;2023-08-17T11:42:04;24.60;74.20
28297;DHT22;62078;49.366;8.172;2023-08-17T11:44:30;24.60;74.30
28297;DHT22;62078;49.366;8.172;2023-08-17T11:46:57;24.60;74.40
28297;DHT22;62078;49.366;8.172;2023-08-17T11:49:23;24.60;74.20
28297;DHT22;62078;49.366;8.172;2023-08-17T11:51:51;24.60;74.30
28297;DHT22;62078;49.366;8.172;2023-08-17T11:54:16;24.60;74.40
28297;DHT22;62078;49.366;8.172;2023-08-17T11:56:42;24.60;74.50
28297;DHT22;62078;49.366;8.172;2023-08-17T11:59:09;24.60;74.40
28297;DHT22;62078;49.366;8.172;2023-08-17T12:01:40;24.60;74.40
28297;DHT22;62078;49.366;8.172;2023-08-17T12:04:06;24.60;74.50
28297;DHT22;62078;49.366;8.172;2023-08-17T12:06:32;24.60;74.50
28297;DHT22;62078;49.366;8.172;2023-08-17T12:08:58;24.60;74.60
28297;DHT22;62078;49.366;8.172;2023-08-17T12:11:24;24.60;74.60
28297;DHT22;62078;49.366;8.172;2023-08-17T12:13:53;24.60;74.50
28297;DHT22;62078;49.366;8.172;2023-08-17T12:16:20;24.70;74.80
28297;DHT22;62078;49.366;8.172;2023-08-17T12:18:52;24.70;74.90
28297;DHT22;62078;49.366;8.172;2023-08-17T12:21:22;24.70;74.90
28297;DHT22;62078;49.366;8.172;2023-08-17T12:23:48;24.60;74.80
28297;DHT22;62078;49.366;8.172;2023-08-17T12:26:21;24.60;74.90
28297;DHT22;62078;49.366;8.172;2023-08-17T12:28:47;24.70;75.00
28297;DHT22;62078;49.366;8.172;2023-08-17T12:31:12;24.70;75.10
28297;DHT22;62078;49.366;8.172;2023-08-17T12:33:38;24.70;75.00
28297;DHT22;62078;49.366;8.172;2023-08-17T12:36:04;24.70;75.10
28297;DHT22;62078;49.366;8.172;2023-08-17T12:38:32;24.70;75.10
28297;DHT22;62078;49.366;8.172;2023-08-17T12:40:57;24.70;75.10
28297;DHT22;62078;49.366;8.172;2023-08-17T12:43:23;24.70;75.10
28297;DHT22;62078;49.366;8.172;2023-08-17T12:45:49;24.70;74.90
28297;DHT22;62078;49.366;8.172;2023-08-17T12:48:15;24.70;75.20
28297;DHT22;62078;49.366;8.172;2023-08-17T12:50:41;24.70;75.30
28297;DHT22;62078;49.366;8.172;2023-08-17T12:53:06;24.70;75.30
28297;DHT22;62078;49.366;8.172;2023-08-17T12:55:32;24.70;75.20
28297;DHT22;62078;49.366;8.172;2023-08-17T12:57:58;24.70;76.10
28297;DHT22;62078;49.366;8.172;2023-08-17T13:00:24;24.70;75.50
28297;DHT22;62078;49.366;8.172;2023-08-17T13:02:50;24.70;75.60
28297;DHT22;62078;49.366;8.172;2023-08-17T13:05:16;24.80;75.80
28297;DHT22;62078;49.366;8.172;2023-08-17T13:07:42;24.70;75.90
28297;DHT22;62078;49.366;8.172;2023-08-17T13:10:08;24.80;76.20
28297;DHT22;62078;49.366;8.172;2023-08-17T13:12:34;24.70;76.20
28297;DHT22;62078;49.366;8.172;2023-08-17T13:15:00;24.70;76.50
28297;DHT22;62078;49.366;8.172;2023-08-17T13:17:26;24.80;76.70
28297;DHT22;62078;49.366;8.172;2023-08-17T13:19:51;24.70;76.60
28297;DHT22;62078;49.366;8.172;2023-08-17T13:22:17;24.70;76.70
28297;DHT22;62078;49.366;8.172;2023-08-17T13:24:43;24.80;76.90
28297;DHT22;62078;49.366;8.172;2023-08-17T13:27:09;24.80;77.00
28297;DHT22;62078;49.366;8.172;2023-08-17T13:29:34;24.70;76.80
28297;DHT22;62078;49.366;8.172;2023-08-17T13:32:01;24.80;76.80
28297;DHT22;62078;49.366;8.172;2023-08-17T13:34:27;24.80;76.60
28297;DHT22;62078;49.366;8.172;2023-08-17T13:36:52;24.80;76.60
28297;DHT22;62078;49.366;8.172;2023-08-17T13:39:18;24.70;76.60
28297;DHT22;62078;49.366;8.172;2023-08-17T13:41:44;24.80;76.70
28297;DHT22;62078;49.366;8.172;2023-08-17T13:44:10;24.80;76.70
28297;DHT22;62078;49.366;8.172;2023-08-17T13:46:35;24.80;76.60
28297;DHT22;62078;49.366;8.172;2023-08-17T13:49:03;24.80;76.70
28297;DHT22;62078;49.366;8.172;2023-08-17T13:51:29;24.80;76.60
28297;DHT22;62078;49.366;8.172;2023-08-17T13:53:54;24.80;76.70
28297;DHT22;62078;49.366;8.172;2023-08-17T13:56:20;24.80;76.60
28297;DHT22;62078;49.366;8.172;2023-08-17T13:58:46;24.80;76.50
28297;DHT22;62078;49.366;8.172;2023-08-17T14:01:11;24.80;76.50
28297;DHT22;62078;49.366;8.172;2023-08-17T14:03:37;24.80;76.50
28297;DHT22;62078;49.366;8.172;2023-08-17T14:06:03;24.80;76.60
28297;DHT22;62078;49.366;8.172;2023-08-17T14:08:29;24.80;76.60
28297;DHT22;62078;49.366;8.172;2023-08-17T14:10:55;24.80;76.70
28297;DHT22;62078;49.366;8.172;2023-08-17T14:13:20;24.80;76.70
28297;DHT22;62078;49.366;8.172;2023-08-17T14:15:46;24.80;76.90
28297;DHT22;62078;49.366;8.172;2023-08-17T14:18:11;24.80;77.00
28297;DHT22;62078;49.366;8.172;2023-08-17T14:20:37;24.80;77.00
28297;DHT22;62078;49.366;8.172;2023-08-17T14:23:03;24.80;77.00
28297;DHT22;62078;49.366;8.172;2023-08-17T14:25:29;24.80;77.00
28297;DHT22;62078;49.366;8.172;2023-08-17T14:27:54;24.80;77.10
28297;DHT22;62078;49.366;8.172;2023-08-17T14:30:20;24.90;77.20
28297;DHT22;62078;49.366;8.172;2023-08-17T14:32:46;24.80;77.20
28297;DHT22;62078;49.366;8.172;2023-08-17T14:35:12;24.80;77.00
28297;DHT22;62078;49.366;8.172;2023-08-17T14:37:37;24.80;77.10
28297;DHT22;62078;49.366;8.172;2023-08-17T14:40:04;24.80;77.00
28297;DHT22;62078;49.366;8.172;2023-08-17T14:42:30;24.90;77.10
28297;DHT22;62078;49.366;8.172;2023-08-17T14:44:55;24.90;77.20
28297;DHT22;62078;49.366;8.172;2023-08-17T14:47:21;24.90;77.00
28297;DHT22;62078;49.366;8.172;2023-08-17T14:49:47;24.90;77.10
28297;DHT22;62078;49.366;8.172;2023-08-17T14:52:13;24.80;77.00
28297;DHT22;62078;49.366;8.172;2023-08-17T14:54:38;24.90;77.00
28297;DHT22;62078;49.366;8.172;2023-08-17T14:57:04;24.90;76.90
28297;DHT22;62078;49.366;8.172;2023-08-17T14:59:30;24.90;76.90
28297;DHT22;62078;49.366;8.172;2023-08-17T15:01:56;24.90;76.80
28297;DHT22;62078;49.366;8.172;2023-08-17T15:04:22;24.90;76.80
28297;DHT22;62078;49.366;8.172;2023-08-17T15:06:48;24.90;76.80
28297;DHT22;62078;49.366;8.172;2023-08-17T15:09:14;24.90;76.80
28297;DHT22;62078;49.366;8.172;2023-08-17T15:11:40;24.90;76.90
28297;DHT22;62078;49.366;8.172;2023-08-17T15:14:06;24.90;76.80
28297;DHT22;62078;49.366;8.172;2023-08-17T15:16:32;25.00;76.70
28297;DHT22;62078;49.366;8.172;2023-08-17T15:18:57;24.90;76.50
28297;DHT22;62078;49.366;8.172;2023-08-17T15:21:23;25.00;76.80
28297;DHT22;62078;49.366;8.172;2023-08-17T15:23:49;25.00;76.70
28297;DHT22;62078;49.366;8.172;2023-08-17T15:26:15;25.10;77.40
28297;DHT22;62078;49.366;8.172;2023-08-17T15:28:41;25.10;77.70
28297;DHT22;62078;49.366;8.172;2023-08-17T15:31:06;25.10;77.70
28297;DHT22;62078;49.366;8.172;2023-08-17T15:33:37;25.20;77.90
28297;DHT22;62078;49.366;8.172;2023-08-17T15:36:03;25.20;78.30
28297;DHT22;62078;49.366;8.172;2023-08-17T15:38:29;25.20;77.80
28297;DHT22;62078;49.366;8.172;2023-08-17T15:40:54;25.20;78.10
28297;DHT22;62078;49.366;8.172;2023-08-17T15:43:20;25.20;78.30
28297;DHT22;62078;49.366;8.172;2023-08-17T15:45:51;25.20;78.10
28297;DHT22;62078;49.366;8.172;2023-08-17T15:48:17;25.20;78.10
28297;DHT22;62078;49.366;8.172;2023-08-17T15:50:42;25.20;78.30
28297;DHT22;62078;49.366;8.172;2023-08-17T15:53:08;25.20;77.90
28297;DHT22;62078;49.366;8.172;2023-08-17T15:55:34;25.20;77.90
28297;DHT22;62078;49.366;8.172;2023-08-17T15:58:00;25.30;77.90
28297;DHT22;62078;49.366;8.172;2023-08-17T16:00:26;25.20;77.50
28297;DHT22;62078;49.366;8.172;2023-08-17T16:02:52;25.30;78.20
28297;DHT22;62078;49.366;8.172;2023-08-17T16:05:17;25.30;78.00
28297;DHT22;62078;49.366;8.172;2023-08-17T16:07:43;25.20;77.70
28297;DHT22;62078;49.366;8.172;2023-08-17T16:10:09;25.20;77.50
28297;DHT22;62078;49.366;8.172;2023-08-17T16:12:35;25.20;77.90
28297;DHT22;62078;49.366;8.172;2023-08-17T16:15:00;25.20;77.90
28297;DHT22;62078;49.366;8.172;2023-08-17T16:17:26;25.20;77.70
28297;DHT22;62078;49.366;8.172;2023-08-17T16:19:52;25.20;78.20
28297;DHT22;62078;49.366;8.172;2023-08-17T16:22:18;25.30;79.00
28297;DHT22;62078;49.366;8.172;2023-08-17T16:24:43;25.30;78.20
28297;DHT22;62078;49.366;8.172;2023-08-17T16:27:09;25.30;78.00
28297;DHT22;62078;49.366;8.172;2023-08-17T16:29:35;25.30;77.70
28297;DHT22;62078;49.366;8.172;2023-08-17T16:32:02;25.30;78.50
28297;DHT22;62078;49.366;8.172;2023-08-17T16:34:29;25.30;78.20
28297;DHT22;62078;49.366;8.172;2023-08-17T16:36:55;25.30;78.50
28297;DHT22;62078;49.366;8.172;2023-08-17T16:39:21;25.30;78.00
28297;DHT22;62078;49.366;8.172;2023-08-17T16:41:47;25.30;78.30
28297;DHT22;62078;49.366;8.172;2023-08-17T16:44:12;25.40;78.70
28297;DHT22;62078;49.366;8.172;2023-08-17T16:46:38;25.30;78.10
28297;DHT22;62078;49.366;8.172;2023-08-17T16:49:04;25.30;78.00
28297;DHT22;62078;49.366;8.172;2023-08-17T16:51:30;25.30;78.30
28297;DHT22;62078;49.366;8.172;2023-08-17T16:53:55;25.40;78.20
28297;DHT22;62078;49.366;8.172;2023-08-17T16:56:21;25.30;77.90
28297;DHT22;62078;49.366;8.172;2023-08-17T16:58:47;25.40;77.80
28297;DHT22;62078;49.366;8.172;2023-08-17T17:01:12;25.40;78.10
28297;DHT22;62078;49.366;8.172;2023-08-17T17:03:38;25.40;78.10
28297;DHT22;62078;49.366;8.172;2023-08-17T17:06:04;25.40;78.10
28297;DHT22;62078;49.366;8.172;2023-08-17T17:08:30;25.40;78.00
28297;DHT22;62078;49.366;8.172;2023-08-17T17:10:56;25.40;77.90
28297;DHT22;62078;49.366;8.172;2023-08-17T17:13:21;25.40;78.00
28297;DHT22;62078;49.366;8.172;2023-08-17T17:15:47;25.40;78.30
28297;DHT22;62078;49.366;8.172;2023-08-17T17:18:13;25.40;78.10
28297;DHT22;62078;49.366;8.172;2023-08-17T17:20:38;25.40;78.50
28297;DHT22;62078;49.366;8.172;2023-08-17T17:23:04;25.40;78.40
28297;DHT22;62078;49.366;8.172;2023-08-17T17:25:30;25.40;78.60
28297;DHT22;62078;49.366;8.172;2023-08-17T17:27:56;25.40;78.50
28297;DHT22;62078;49.366;8.172;2023-08-17T17:30:21;25.40;78.40
28297;DHT22;62078;49.366;8.172;2023-08-17T17:32:47;25.30;78.30
28297;DHT22;62078;49.366;8.172;2023-08-17T17:35:13;25.30;78.30
28297;DHT22;62078;49.366;8.172;2023-08-17T17:37:38;25.30;78.20
28297;DHT22;62078;49.366;8.172;2023-08-17T17:40:05;25.30;78.10
28297;DHT22;62078;49.366;8.172;2023-08-17T17:42:31;25.20;78.10
28297;DHT22;62078;49.366;8.172;2023-08-17T17:44:57;25.20;78.30
28297;DHT22;62078;49.366;8.172;2023-08-17T17:47:23;25.20;78.50
28297;DHT22;62078;49.366;8.172;2023-08-17T17:49:48;25.30;77.90
28297;DHT22;62078;49.366;8.172;2023-08-17T17:52:14;25.30;78.20
28297;DHT22;62078;49.366;8.172;2023-08-17T17:54:40;25.30;78.40
28297;DHT22;62078;49.366;8.172;2023-08-17T17:57:05;25.20;77.80
28297;DHT22;62078;49.366;8.172;2023-08-17T17:59:31;25.30;78.40
28297;DHT22;62078;49.366;8.172;2023-08-17T18:01:57;25.20;78.10
28297;DHT22;62078;49.366;8.172;2023-08-17T18:04:22;25.30;77.90
28297;DHT22;62078;49.366;8.172;2023-08-17T18:06:48;25.20;78.20
28297;DHT22;62078;49.366;8.172;2023-08-17T18:09:14;25.30;78.40
28297;DHT22;62078;49.366;8.172;2023-08-17T18:11:40;25.20;78.30
28297;DHT22;62078;49.366;8.172;2023-08-17T18:14:06;25.20;78.10
28297;DHT22;62078;49.366;8.172;2023-08-17T18:16:33;25.20;77.90
28297;DHT22;62078;49.366;8.172;2023-08-17T18:18:59;25.20;77.80
28297;DHT22;62078;49.366;8.172;2023-08-17T18:21:25;25.20;77.90
28297;DHT22;62078;49.366;8.172;2023-08-17T18:23:56;25.20;77.80
28297;DHT22;62078;49.366;8.172;2023-08-17T18:26:22;25.20;77.80
28297;DHT22;62078;49.366;8.172;2023-08-17T18:28:47;25.20;77.80